Terminal Aerodrome Forecast
Issued by NWS Bismarck, ND

Home | Current Version | Previous Version | Text Only | Print | Product List | Glossary Off
Versions: 1 2 3 4 5 6 7 8 9 10 11 12 13 14 15

000
FTUS43 KBIS 131500 AAA
TAFISN
TAF AMD
KISN 131503Z 1315/1412 34015KT P6SM BKN025
     FM131800 34018G25KT P6SM BKN035
     FM140100 34010KT P6SM BKN035
     FM140600 36005KT P6SM BKN025=

USA.gov is the U.S. government's official web portal to all federal, state and local government web resources and services.